Time;durP1;ratioP1;P1;durP2;ratioP2;P2;SDS_P1;SDS_P2;PMS_P1;PMS_P2;Temp;Humidity;BMP_temperature;BMP_pressure;BME280_temperature;BME280_humidity;BME280_pressure;Samples;Min_cycle;Max_cycle;Signal;HPM_P1;HPM_P2
2023/02/18 00:01:30;;;;;;;;;8.67;8.33;;;;;;;;4981609;28;46505;-60
2023/02/18 00:03:56;;;;;;;;;6.67;6.67;;;;;;;;4981151;28;45379;-59
2023/02/18 00:06:25;;;;;;;;;8.33;6.00;;;;;;;;4981949;28;45447;-59
2023/02/18 00:08:51;;;;;;;;;6.00;6.00;;;;;;;;4979613;28;46032;-59
2023/02/18 00:11:17;;;;;;;;;9.33;9.33;;;;;;;;4981565;28;46423;-59
2023/02/18 00:13:47;;;;;;;;;9.00;8.00;;;;;;;;4980937;28;45305;-59
2023/02/18 00:16:13;;;;;;;;;5.00;5.00;;;;;;;;4981526;28;45440;-59
2023/02/18 00:18:38;;;;;;;;;8.00;8.00;;;;;;;;4987969;28;45323;-59
2023/02/18 00:21:04;;;;;;;;;7.67;7.67;;;;;;;;4982583;28;45431;-59
2023/02/18 00:23:29;;;;;;;;;10.67;6.00;;;;;;;;4981550;28;45851;-59
2023/02/18 00:25:58;;;;;;;;;7.00;6.67;;;;;;;;4979591;28;45566;-60
2023/02/18 00:28:24;;;;;;;;;8.00;8.00;;;;;;;;4979671;28;45624;-59
2023/02/18 00:30:49;;;;;;;;;5.67;5.67;;;;;;;;4980166;28;46137;-59
2023/02/18 00:33:14;;;;;;;;;7.33;6.67;;;;;;;;4981377;28;45333;-59
2023/02/18 00:35:39;;;;;;;;;7.00;6.00;;;;;;;;4980608;28;45432;-59
2023/02/18 00:38:04;;;;;;;;;5.67;5.67;;;;;;;;4980348;28;45567;-59
2023/02/18 00:40:29;;;;;;;;;7.67;7.67;;;;;;;;4978947;28;45452;-60
2023/02/18 00:42:55;;;;;;;;;8.67;7.00;;;;;;;;4980052;28;45520;-59
2023/02/18 00:45:20;;;;;;;;;6.67;6.67;;;;;;;;4980753;28;45329;-59
2023/02/18 00:47:45;;;;;;;;;8.00;6.67;;;;;;;;4980672;28;45325;-59
2023/02/18 00:50:10;;;;;;;;;6.33;6.00;;;;;;;;4980728;28;45503;-59
2023/02/18 00:52:36;;;;;;;;;7.33;5.33;;;;;;;;4980417;28;45173;-59
2023/02/18 00:55:01;;;;;;;;;9.00;7.67;;;;;;;;4981105;28;45486;-60
2023/02/18 00:57:26;;;;;;;;;8.67;7.00;;;;;;;;4979522;28;45344;-59
2023/02/18 00:59:51;;;;;;;;;8.00;7.33;;;;;;;;4978787;28;45400;-59
2023/02/18 01:02:16;;;;;;;;;10.00;10.00;;;;;;;;4980694;28;45388;-60
2023/02/18 01:04:41;;;;;;;;;8.33;7.33;;;;;;;;4980493;28;45316;-60
2023/02/18 01:07:09;;;;;;;;;9.67;6.33;;;;;;;;4978408;28;45715;-60
2023/02/18 01:09:34;;;;;;;;;7.67;6.67;;;;;;;;4975990;28;48271;-60
2023/02/18 01:11:59;;;;;;;;;7.00;7.00;;;;;;;;4977380;28;45933;-60
2023/02/18 01:14:24;;;;;;;;;7.33;6.67;;;;;;;;4977603;28;45381;-60
2023/02/18 01:16:49;;;;;;;;;11.00;9.33;;;;;;;;4977982;28;45507;-60
2023/02/18 01:19:15;;;;;;;;;9.00;7.00;;;;;;;;4976680;28;46205;-60
2023/02/18 01:21:40;;;;;;;;;5.67;5.67;;;;;;;;4978457;28;45320;-60
2023/02/18 01:24:05;;;;;;;;;10.00;9.00;;;;;;;;4984426;28;45368;-60
2023/02/18 01:26:30;;;;;;;;;7.67;6.33;;;;;;;;4980504;28;46703;-60
2023/02/18 01:28:56;;;;;;;;;9.67;8.33;;;;;;;;4980193;28;45972;-60
2023/02/18 05:30:45;;;;;;;;;7.67;4.67;;;;;;;;5766723;22;46561;-59
2023/02/18 05:33:11;;;;;;;;;3.67;3.67;;;;;;;;5008099;28;45517;-59
2023/02/18 05:35:36;;;;;;;;;7.67;6.00;;;;;;;;5006232;28;45639;-59
2023/02/18 05:38:01;;;;;;;;;6.00;6.00;;;;;;;;5010692;28;45653;-59
2023/02/18 05:40:26;;;;;;;;;7.00;6.00;;;;;;;;5005682;28;45484;-60
2023/02/18 05:42:51;;;;;;;;;5.33;5.00;;;;;;;;5005131;28;45658;-59
2023/02/18 05:45:17;;;;;;;;;8.67;5.00;;;;;;;;5012319;28;46579;-60
2023/02/18 05:47:42;;;;;;;;;4.67;4.67;;;;;;;;5014909;28;45744;-59
2023/02/18 05:50:07;;;;;;;;;5.67;5.67;;;;;;;;5006222;28;45378;-59
2023/02/18 05:52:32;;;;;;;;;4.67;3.67;;;;;;;;5012467;28;45465;-59
2023/02/18 05:54:58;;;;;;;;;5.67;5.67;;;;;;;;5014133;28;46188;-59
2023/02/18 05:57:23;;;;;;;;;5.67;5.33;;;;;;;;5012742;28;45475;-60
2023/02/18 05:59:49;;;;;;;;;4.00;4.00;;;;;;;;5010193;28;45457;-60
2023/02/18 06:02:14;;;;;;;;;4.33;4.00;;;;;;;;5012175;28;46265;-59
2023/02/18 06:04:39;;;;;;;;;4.00;4.00;;;;;;;;5008682;28;45471;-60
2023/02/18 06:07:04;;;;;;;;;4.00;3.67;;;;;;;;5009687;28;45606;-59
2023/02/18 06:09:30;;;;;;;;;5.00;5.00;;;;;;;;5008620;28;45534;-59
2023/02/18 06:11:55;;;;;;;;;4.67;4.67;;;;;;;;5007317;28;45640;-59
2023/02/18 06:14:20;;;;;;;;;3.00;3.00;;;;;;;;5008964;28;46278;-59
2023/02/18 06:16:45;;;;;;;;;4.00;4.00;;;;;;;;5005685;28;45336;-60
2023/02/18 06:19:10;;;;;;;;;3.00;3.00;;;;;;;;5011559;28;45370;-59
2023/02/18 06:21:36;;;;;;;;;6.00;4.33;;;;;;;;5000998;28;45408;-59
2023/02/18 06:24:01;;;;;;;;;4.67;4.00;;;;;;;;5008590;28;46041;-59
2023/02/18 06:26:26;;;;;;;;;3.33;3.00;;;;;;;;5014149;28;45457;-59
2023/02/18 06:28:51;;;;;;;;;4.00;4.00;;;;;;;;5008310;28;45474;-59
2023/02/18 06:31:17;;;;;;;;;0.67;0.67;;;;;;;;5001139;28;45410;-59
2023/02/18 06:33:42;;;;;;;;;6.33;5.00;;;;;;;;5014354;28;46750;-59
2023/02/18 06:36:10;;;;;;;;;5.00;5.00;;;;;;;;5010845;28;45676;-59
2023/02/18 06:38:36;;;;;;;;;3.67;3.67;;;;;;;;5004207;28;45506;-59
2023/02/18 06:41:01;;;;;;;;;4.00;4.00;;;;;;;;5013408;28;45597;-59
2023/02/18 06:43:26;;;;;;;;;4.33;4.00;;;;;;;;5007778;28;45403;-59
2023/02/18 06:45:52;;;;;;;;;3.67;3.67;;;;;;;;5005195;28;45648;-59
2023/02/18 06:48:17;;;;;;;;;3.00;3.00;;;;;;;;5001649;28;45469;-59
2023/02/18 06:50:42;;;;;;;;;5.00;3.00;;;;;;;;5005153;28;45394;-59
2023/02/18 06:53:07;;;;;;;;;5.00;3.67;;;;;;;;5003191;28;46204;-59
2023/02/18 06:55:33;;;;;;;;;3.00;2.67;;;;;;;;5005864;28;45548;-59
2023/02/18 06:57:58;;;;;;;;;4.00;4.00;;;;;;;;5015361;28;45495;-60
2023/02/18 07:00:23;;;;;;;;;3.00;3.00;;;;;;;;5005685;28;45293;-59
2023/02/18 07:02:48;;;;;;;;;7.67;5.00;;;;;;;;5004702;28;45474;-60
2023/02/18 07:05:14;;;;;;;;;5.00;3.67;;;;;;;;5010964;28;45455;-60
2023/02/18 07:07:39;;;;;;;;;5.00;5.00;;;;;;;;5010002;28;45392;-61
2023/02/18 07:10:05;;;;;;;;;8.00;5.00;;;;;;;;5010188;28;45412;-59
2023/02/18 07:12:30;;;;;;;;;6.33;4.67;;;;;;;;5004509;28;46409;-60
2023/02/18 07:14:55;;;;;;;;;8.00;6.00;;;;;;;;5008018;28;45341;-64
2023/02/18 07:17:20;;;;;;;;;6.00;6.00;;;;;;;;5013363;28;45473;-59
2023/02/18 07:19:46;;;;;;;;;7.00;7.00;;;;;;;;5017031;28;45538;-60
2023/02/18 07:22:11;;;;;;;;;7.00;6.67;;;;;;;;5004253;28;45479;-61
2023/02/18 07:24:36;;;;;;;;;7.33;6.33;;;;;;;;5010370;28;45459;-60
2023/02/18 07:27:01;;;;;;;;;6.00;6.00;;;;;;;;5016980;28;45509;-60
2023/02/18 07:29:27;;;;;;;;;7.50;7.00;;;;;;;;5012602;28;45430;-59
2023/02/18 07:31:53;;;;;;;;;6.00;5.00;;;;;;;;5006947;28;46436;-63
2023/02/18 07:34:18;;;;;;;;;10.67;8.00;;;;;;;;5008274;28;45442;-60
2023/02/18 07:36:43;;;;;;;;;15.33;11.00;;;;;;;;5014811;28;45485;-59
2023/02/18 07:39:08;;;;;;;;;8.00;7.33;;;;;;;;5005531;28;45429;-60
2023/02/18 07:41:34;;;;;;;;;7.00;7.00;;;;;;;;5005242;28;46243;-62
2023/02/18 07:43:59;;;;;;;;;8.33;7.67;;;;;;;;5013523;28;45481;-61
2023/02/18 07:46:24;;;;;;;;;6.00;6.00;;;;;;;;5008267;28;45441;-60
2023/02/18 07:48:49;;;;;;;;;4.33;3.33;;;;;;;;5004225;28;45336;-60
2023/02/18 07:51:15;;;;;;;;;6.67;6.67;;;;;;;;5013985;28;46338;-60
2023/02/18 07:53:40;;;;;;;;;7.00;7.00;;;;;;;;5004111;28;45364;-60
2023/02/18 07:56:06;;;;;;;;;4.67;4.67;;;;;;;;5013620;28;45347;-62
2023/02/18 07:58:35;;;;;;;;;8.33;6.67;;;;;;;;5014734;28;45415;-59
2023/02/18 08:01:08;;;;;;;;;6.33;6.00;;;;;;;;5008576;28;46277;-59
2023/02/18 08:03:33;;;;;;;;;6.00;5.00;;;;;;;;5003437;28;45343;-60
2023/02/18 08:05:59;;;;;;;;;4.00;2.67;;;;;;;;5002707;28;45691;-60
2023/02/18 08:08:25;;;;;;;;;6.33;4.00;;;;;;;;5016793;28;45489;-61
2023/02/18 08:10:52;;;;;;;;;6.00;5.00;;;;;;;;5012575;28;46459;-59
2023/02/18 08:13:17;;;;;;;;;5.33;5.00;;;;;;;;5009895;28;45505;-59
2023/02/18 08:15:42;;;;;;;;;4.00;4.00;;;;;;;;5010462;28;45537;-60
2023/02/18 08:18:13;;;;;;;;;7.00;4.00;;;;;;;;5010455;28;45641;-60
2023/02/18 08:20:38;;;;;;;;;8.67;6.00;;;;;;;;5015166;28;47245;-60
2023/02/18 08:23:04;;;;;;;;;6.67;5.33;;;;;;;;5014620;28;45332;-59
2023/02/18 08:25:29;;;;;;;;;5.00;4.00;;;;;;;;5013798;28;45323;-60
2023/02/18 08:27:54;;;;;;;;;4.67;4.00;;;;;;;;5011664;28;45563;-60
2023/02/18 08:30:20;;;;;;;;;5.00;5.00;;;;;;;;5012451;28;45411;-59
2023/02/18 08:32:45;;;;;;;;;3.67;3.00;;;;;;;;5006779;28;45540;-59
2023/02/18 08:35:10;;;;;;;;;6.33;5.33;;;;;;;;5017729;28;45361;-59
2023/02/18 08:37:36;;;;;;;;;6.33;4.33;;;;;;;;5004112;28;45399;-59
2023/02/18 08:40:01;;;;;;;;;5.00;5.00;;;;;;;;5017574;28;45465;-59
2023/02/18 08:42:26;;;;;;;;;4.67;3.00;;;;;;;;5018592;28;45490;-59
2023/02/18 08:44:51;;;;;;;;;6.00;6.00;;;;;;;;5013691;28;45415;-60
2023/02/18 08:47:17;;;;;;;;;4.67;3.33;;;;;;;;5008911;28;45405;-60
2023/02/18 08:49:42;;;;;;;;;3.33;3.33;;;;;;;;5009684;28;46228;-59
2023/02/18 08:52:07;;;;;;;;;8.67;8.00;;;;;;;;5017474;28;45851;-60
2023/02/18 08:54:32;;;;;;;;;4.00;4.00;;;;;;;;5016592;28;45364;-60
2023/02/18 08:56:58;;;;;;;;;9.00;8.00;;;;;;;;5011390;28;45359;-60
2023/02/18 08:59:23;;;;;;;;;6.33;5.33;;;;;;;;5019464;28;45451;-60
2023/02/18 09:01:48;;;;;;;;;8.33;6.00;;;;;;;;5013588;28;45378;-60
2023/02/18 09:04:14;;;;;;;;;5.00;4.00;;;;;;;;5015715;28;46368;-60
2023/02/18 09:06:39;;;;;;;;;5.33;4.67;;;;;;;;5014595;28;45384;-60
2023/02/18 09:09:05;;;;;;;;;4.00;2.33;;;;;;;;5017963;28;45570;-60
2023/02/18 09:11:31;;;;;;;;;4.67;4.67;;;;;;;;5018761;28;45488;-60
2023/02/18 09:13:56;;;;;;;;;4.00;4.00;;;;;;;;5018959;28;45425;-60
2023/02/18 09:16:21;;;;;;;;;4.00;2.00;;;;;;;;5016865;28;45480;-60
2023/02/18 09:18:47;;;;;;;;;4.00;4.00;;;;;;;;5005684;28;46191;-59
2023/02/18 09:21:13;;;;;;;;;4.00;4.00;;;;;;;;5012735;28;45420;-60
2023/02/18 09:23:38;;;;;;;;;3.33;3.00;;;;;;;;5014153;28;45470;-59
2023/02/18 09:26:04;;;;;;;;;3.33;2.00;;;;;;;;5018325;28;45695;-60
2023/02/18 09:28:30;;;;;;;;;4.00;4.00;;;;;;;;5013372;28;46416;-59
2023/02/18 09:30:55;;;;;;;;;6.00;2.00;;;;;;;;5009829;28;45562;-61
2023/02/18 09:33:20;;;;;;;;;2.67;2.00;;;;;;;;5013502;28;45414;-59
2023/02/18 09:35:46;;;;;;;;;5.33;3.00;;;;;;;;5009494;28;45406;-59
2023/02/18 09:38:12;;;;;;;;;3.67;3.00;;;;;;;;5004468;28;47342;-60
2023/02/18 09:40:40;;;;;;;;;2.00;2.00;;;;;;;;5004602;28;45718;-60
2023/02/18 09:43:06;;;;;;;;;1.00;1.00;;;;;;;;5013313;28;45414;-60
2023/02/18 09:45:31;;;;;;;;;4.67;3.00;;;;;;;;5007004;28;45313;-60
2023/02/18 09:47:57;;;;;;;;;3.00;3.00;;;;;;;;5002253;28;45480;-60
2023/02/18 09:50:25;;;;;;;;;3.00;3.00;;;;;;;;5015799;28;45855;-60
2023/02/18 09:52:51;;;;;;;;;2.67;2.67;;;;;;;;5008762;28;45473;-59
2023/02/18 09:55:21;;;;;;;;;5.33;3.00;;;;;;;;5015259;28;45357;-59
2023/02/18 09:57:52;;;;;;;;;3.00;3.00;;;;;;;;5014109;28;46638;-60
2023/02/18 10:00:22;;;;;;;;;3.33;2.00;;;;;;;;5007748;28;45549;-60
2023/02/18 10:03:10;;;;;;;;;1.67;1.67;;;;;;;;5009813;28;45771;-60
2023/02/18 10:05:36;;;;;;;;;2.33;1.00;;;;;;;;5011010;28;45868;-60
2023/02/18 10:08:04;;;;;;;;;2.67;2.00;;;;;;;;5004736;28;46118;-60
2023/02/18 10:10:37;;;;;;;;;2.67;2.67;;;;;;;;5006960;28;45417;-59
2023/02/18 10:13:02;;;;;;;;;2.33;2.00;;;;;;;;5010387;28;45482;-59
2023/02/18 10:15:29;;;;;;;;;3.33;3.33;;;;;;;;5016559;28;45478;-61
2023/02/18 10:17:56;;;;;;;;;2.67;2.00;;;;;;;;5012050;28;46716;-60
2023/02/18 10:20:23;;;;;;;;;7.00;5.67;;;;;;;;5009102;28;45429;-60
2023/02/18 10:22:49;;;;;;;;;2.00;2.00;;;;;;;;5009408;28;45488;-59
2023/02/18 10:25:18;;;;;;;;;3.00;1.00;;;;;;;;5012406;28;46172;-61
2023/02/18 10:27:43;;;;;;;;;3.67;3.00;;;;;;;;5012425;28;45526;-61
2023/02/18 10:30:14;;;;;;;;;3.33;2.00;;;;;;;;5018113;28;45505;-60
2023/02/18 10:32:42;;;;;;;;;6.33;5.00;;;;;;;;5012711;28;45566;-60
2023/02/18 10:35:19;;;;;;;;;2.00;2.00;;;;;;;;5009254;28;45554;-60
2023/02/18 10:38:00;;;;;;;;;2.00;1.00;;;;;;;;5011136;28;46382;-59
2023/02/18 10:40:28;;;;;;;;;1.67;1.67;;;;;;;;5004155;28;45670;-60
2023/02/18 10:43:19;;;;;;;;;5.67;2.67;;;;;;;;5011006;28;45521;-60
2023/02/18 10:45:54;;;;;;;;;2.00;2.00;;;;;;;;5008026;28;45565;-60
2023/02/18 10:48:21;;;;;;;;;2.33;2.33;;;;;;;;5010691;28;46580;-59
2023/02/18 10:50:46;;;;;;;;;1.00;1.00;;;;;;;;5013381;28;45525;-59
2023/02/18 10:53:30;;;;;;;;;4.00;2.67;;;;;;;;5015666;28;45415;-60
2023/02/18 10:55:57;;;;;;;;;3.67;0.67;;;;;;;;5009570;28;45772;-59
2023/02/18 10:58:25;;;;;;;;;3.00;3.00;;;;;;;;5009281;28;47179;-59
2023/02/18 11:00:51;;;;;;;;;3.00;3.00;;;;;;;;5008950;28;45481;-60
2023/02/18 11:03:18;;;;;;;;;3.00;3.00;;;;;;;;5006951;28;45384;-59
2023/02/18 11:05:45;;;;;;;;;5.67;3.33;;;;;;;;5006824;28;45557;-59
2023/02/18 11:08:15;;;;;;;;;4.00;4.00;;;;;;;;5012487;28;46090;-60
2023/02/18 11:10:42;;;;;;;;;2.67;2.67;;;;;;;;5016251;28;45394;-60
2023/02/18 11:13:09;;;;;;;;;2.00;2.00;;;;;;;;5006133;28;45493;-60
2023/02/18 11:15:34;;;;;;;;;3.33;2.33;;;;;;;;5011988;28;45602;-60
2023/02/18 11:18:17;;;;;;;;;4.33;4.00;;;;;;;;5007279;28;45375;-65
2023/02/18 11:20:53;;;;;;;;;5.67;5.67;;;;;;;;5017800;28;45606;-65
2023/02/18 11:23:19;;;;;;;;;2.33;2.00;;;;;;;;5012467;28;45880;-65
2023/02/18 11:26:05;;;;;;;;;2.00;2.00;;;;;;;;5016736;28;45441;-65
2023/02/18 11:28:33;;;;;;;;;4.67;4.00;;;;;;;;5003929;28;46243;-64
2023/02/18 11:31:00;;;;;;;;;1.67;1.67;;;;;;;;5014821;28;45471;-65
2023/02/18 11:33:29;;;;;;;;;5.67;3.67;;;;;;;;5011063;28;45442;-65
2023/02/18 11:35:56;;;;;;;;;5.00;3.33;;;;;;;;5010731;28;45783;-64
2023/02/18 11:38:23;;;;;;;;;2.00;2.00;;;;;;;;5014123;28;47180;-65
2023/02/18 11:40:56;;;;;;;;;2.00;2.00;;;;;;;;5008695;28;45471;-64
2023/02/18 11:43:26;;;;;;;;;2.67;1.33;;;;;;;;5018071;28;45494;-65
2023/02/18 11:46:06;;;;;;;;;4.00;3.00;;;;;;;;5010822;28;45454;-65
2023/02/18 11:48:32;;;;;;;;;2.33;1.33;;;;;;;;5011048;28;45414;-64
2023/02/18 11:51:00;;;;;;;;;0.67;0.67;;;;;;;;5015265;28;45372;-64
2023/02/18 11:53:25;;;;;;;;;4.33;1.67;;;;;;;;5006203;28;45410;-64
2023/02/18 11:55:57;;;;;;;;;1.00;1.00;;;;;;;;5011124;28;45320;-64
2023/02/18 11:58:23;;;;;;;;;2.67;1.00;;;;;;;;4998809;28;47236;-67
2023/02/18 12:00:52;;;;;;;;;2.00;0.67;;;;;;;;5013591;28;45271;-65
2023/02/18 12:03:27;;;;;;;;;1.33;0.67;;;;;;;;5005008;28;45442;-66
2023/02/18 12:06:04;;;;;;;;;1.33;1.33;;;;;;;;5012249;28;45480;-66
2023/02/18 12:08:33;;;;;;;;;2.67;2.67;;;;;;;;5014763;28;47274;-65
2023/02/18 12:11:13;;;;;;;;;0.67;0.67;;;;;;;;5014496;28;45331;-63
2023/02/18 12:13:43;;;;;;;;;6.33;1.67;;;;;;;;5008828;28;45478;-63
2023/02/18 12:16:25;;;;;;;;;7.00;3.33;;;;;;;;4999227;28;46807;-62
2023/02/18 12:18:50;;;;;;;;;2.00;2.00;;;;;;;;5003590;28;46152;-62
2023/02/18 12:21:16;;;;;;;;;2.00;1.00;;;;;;;;5012661;28;45980;-63
2023/02/18 12:23:41;;;;;;;;;2.00;1.33;;;;;;;;4998957;28;45661;-63
2023/02/18 12:26:13;;;;;;;;;4.67;2.00;;;;;;;;5011053;28;45515;-64
2023/02/18 12:28:50;;;;;;;;;3.67;3.00;;;;;;;;5004849;28;46512;-63
2023/02/18 12:31:15;;;;;;;;;4.00;2.33;;;;;;;;5009273;28;45569;-63
2023/02/18 12:33:40;;;;;;;;;3.00;1.33;;;;;;;;5012741;28;45466;-63
2023/02/18 12:36:32;;;;;;;;;2.00;2.00;;;;;;;;5000731;28;45331;-63
2023/02/18 12:39:06;;;;;;;;;1.67;1.67;;;;;;;;5001844;28;46248;-63
2023/02/18 12:42:01;;;;;;;;;3.67;1.67;;;;;;;;5007381;28;45604;-63
2023/02/18 12:44:44;;;;;;;;;3.33;1.67;;;;;;;;5005615;28;45391;-63
2023/02/18 12:47:09;;;;;;;;;2.33;1.67;;;;;;;;5011584;28;45288;-62
2023/02/18 12:49:43;;;;;;;;;1.67;1.67;;;;;;;;5011904;28;46001;-62
2023/02/18 12:52:20;;;;;;;;;3.00;2.00;;;;;;;;5001109;28;45742;-62
2023/02/18 12:54:46;;;;;;;;;4.67;4.67;;;;;;;;4999305;28;45573;-63
2023/02/18 12:57:13;;;;;;;;;11.33;5.00;;;;;;;;5009181;28;45375;-63
2023/02/18 12:59:44;;;;;;;;;6.00;3.67;;;;;;;;5014767;28;46077;-63
2023/02/18 13:02:28;;;;;;;;;1.67;1.67;;;;;;;;5010494;28;45494;-63
2023/02/18 13:05:03;;;;;;;;;0.67;0.67;;;;;;;;5014440;28;45429;-63
2023/02/18 13:07:46;;;;;;;;;1.33;0.67;;;;;;;;5008121;28;45646;-63
2023/02/18 13:10:30;;;;;;;;;4.00;2.67;;;;;;;;5015041;28;46332;-63
2023/02/18 13:12:55;;;;;;;;;1.00;1.00;;;;;;;;5005862;28;45522;-63
2023/02/18 13:15:36;;;;;;;;;1.33;1.33;;;;;;;;5008382;28;45488;-63
2023/02/18 13:18:03;;;;;;;;;2.33;2.33;;;;;;;;5010624;28;45432;-62
2023/02/18 13:20:40;;;;;;;;;4.67;2.00;;;;;;;;5006651;28;45558;-63
2023/02/18 13:23:09;;;;;;;;;2.67;2.67;;;;;;;;5014772;28;45825;-64
2023/02/18 13:25:37;;;;;;;;;1.67;1.67;;;;;;;;5013794;28;45524;-63
2023/02/18 13:28:17;;;;;;;;;1.67;1.67;;;;;;;;5019297;28;45645;-62
2023/02/18 13:30:59;;;;;;;;;2.67;0.67;;;;;;;;5011368;28;45452;-62
2023/02/18 13:33:33;;;;;;;;;0.67;0.67;;;;;;;;5015164;28;45522;-63
2023/02/18 13:36:08;;;;;;;;;2.67;1.67;;;;;;;;5014039;28;45362;-62
2023/02/18 13:38:52;;;;;;;;;2.00;2.00;;;;;;;;5010558;28;45260;-63
2023/02/18 13:41:21;;;;;;;;;6.00;3.00;;;;;;;;5014801;28;46142;-62
2023/02/18 13:43:46;;;;;;;;;2.00;2.00;;;;;;;;5016889;28;45360;-62
2023/02/18 13:46:16;;;;;;;;;1.67;1.67;;;;;;;;5013650;28;45521;-61
2023/02/18 13:48:47;;;;;;;;;2.33;2.33;;;;;;;;5009946;28;45627;-62
2023/02/18 13:51:14;;;;;;;;;2.33;2.33;;;;;;;;5009903;28;45468;-62
2023/02/18 13:53:41;;;;;;;;;4.00;2.67;;;;;;;;5011438;28;45401;-63
2023/02/18 13:56:06;;;;;;;;;2.00;2.00;;;;;;;;5009896;28;45317;-62
2023/02/18 13:58:38;;;;;;;;;6.00;4.67;;;;;;;;5011247;28;45700;-62
2023/02/18 14:01:05;;;;;;;;;2.67;1.67;;;;;;;;5011965;28;45436;-62
2023/02/18 14:03:43;;;;;;;;;4.67;1.67;;;;;;;;5011022;28;45377;-63
2023/02/18 14:06:14;;;;;;;;;0.67;0.33;;;;;;;;5018019;28;45592;-62
2023/02/18 14:08:39;;;;;;;;;2.33;2.33;;;;;;;;5002953;28;45549;-62
2023/02/18 14:11:23;;;;;;;;;4.00;2.33;;;;;;;;5009735;28;45514;-62
2023/02/18 14:13:53;;;;;;;;;2.33;2.33;;;;;;;;5014454;28;45514;-62
2023/02/18 14:16:18;;;;;;;;;1.00;1.00;;;;;;;;5006896;28;45471;-62
2023/02/18 14:18:43;;;;;;;;;1.00;1.00;;;;;;;;5002004;28;45340;-62
2023/02/18 14:21:12;;;;;;;;;2.33;2.00;;;;;;;;5009625;28;46361;-64
2023/02/18 14:23:37;;;;;;;;;1.67;1.67;;;;;;;;5014374;28;45272;-63
2023/02/18 14:26:05;;;;;;;;;4.00;3.00;;;;;;;;5003985;28;45504;-64
2023/02/18 14:28:33;;;;;;;;;3.00;1.67;;;;;;;;5011643;28;45453;-63
2023/02/18 14:31:10;;;;;;;;;2.00;2.00;;;;;;;;5015467;28;45374;-63
2023/02/18 14:33:36;;;;;;;;;3.67;3.67;;;;;;;;5005864;28;45627;-63
2023/02/18 14:36:16;;;;;;;;;3.33;2.33;;;;;;;;5001436;28;45611;-63
2023/02/18 14:38:49;;;;;;;;;7.00;2.00;;;;;;;;5001332;28;45458;-64
2023/02/18 14:41:33;;;;;;;;;2.00;1.67;;;;;;;;5011030;28;46218;-63
2023/02/18 14:44:16;;;;;;;;;0.67;0.67;;;;;;;;5010647;28;45735;-63
2023/02/18 14:46:47;;;;;;;;;1.67;1.33;;;;;;;;5013841;28;45417;-63
2023/02/18 14:49:15;;;;;;;;;2.00;1.67;;;;;;;;5016537;28;45519;-63
2023/02/18 14:51:42;;;;;;;;;1.00;1.00;;;;;;;;5011845;28;46120;-63
2023/02/18 14:54:11;;;;;;;;;1.33;1.33;;;;;;;;5013265;28;45580;-63
2023/02/18 14:56:38;;;;;;;;;2.00;2.00;;;;;;;;5009854;28;45423;-63
2023/02/18 14:59:04;;;;;;;;;2.00;2.00;;;;;;;;5011249;28;45381;-63
2023/02/18 15:01:31;;;;;;;;;3.33;3.00;;;;;;;;5014829;28;45431;-63
2023/02/18 15:03:56;;;;;;;;;1.67;1.67;;;;;;;;5012368;28;45406;-63
2023/02/18 15:06:30;;;;;;;;;2.33;2.33;;;;;;;;5005305;28;45384;-63
2023/02/18 15:08:55;;;;;;;;;3.33;3.00;;;;;;;;5014117;28;45609;-63
2023/02/18 15:11:23;;;;;;;;;1.33;1.33;;;;;;;;5012070;28;46176;-63
2023/02/18 15:13:48;;;;;;;;;1.67;1.67;;;;;;;;5012452;28;45387;-63
2023/02/18 15:16:25;;;;;;;;;3.33;2.00;;;;;;;;5007328;28;45268;-63
2023/02/18 15:19:11;;;;;;;;;2.00;2.00;;;;;;;;5009355;28;45490;-63
2023/02/18 15:21:39;;;;;;;;;3.00;3.00;;;;;;;;5001847;28;46547;-63
2023/02/18 15:24:30;;;;;;;;;2.00;2.00;;;;;;;;5005895;28;45948;-64
2023/02/18 15:26:58;;;;;;;;;4.33;1.67;;;;;;;;4996194;28;45585;-63
2023/02/18 15:29:24;;;;;;;;;3.33;2.00;;;;;;;;5005908;28;45616;-64
2023/02/18 15:31:50;;;;;;;;;3.00;3.00;;;;;;;;5004661;28;46321;-64
2023/02/18 15:34:27;;;;;;;;;2.00;2.00;;;;;;;;5005712;28;45436;-63
2023/02/18 15:36:52;;;;;;;;;4.33;2.67;;;;;;;;5004305;28;45724;-63
2023/02/18 15:39:18;;;;;;;;;2.00;1.67;;;;;;;;5020912;22;45362;-57
2023/02/18 15:41:43;;;;;;;;;2.33;1.67;;;;;;;;4988176;28;46397;-57
2023/02/18 15:44:17;;;;;;;;;5.00;3.00;;;;;;;;5008230;28;45754;-57
2023/02/18 15:46:42;;;;;;;;;5.33;3.00;;;;;;;;4994824;28;45453;-56
2023/02/18 15:49:08;;;;;;;;;5.33;4.00;;;;;;;;4996982;28;45432;-55
2023/02/18 15:51:33;;;;;;;;;3.00;3.00;;;;;;;;4990308;28;46621;-57
2023/02/18 15:54:01;;;;;;;;;3.33;2.33;;;;;;;;4994582;28;45435;-57
2023/02/18 15:56:31;;;;;;;;;3.67;2.33;;;;;;;;4992989;28;45570;-57
2023/02/18 15:59:15;;;;;;;;;2.00;2.00;;;;;;;;5004127;28;45411;-57
2023/02/18 16:01:41;;;;;;;;;6.00;6.00;;;;;;;;4997537;28;45594;-58
2023/02/18 16:04:07;;;;;;;;;3.00;3.00;;;;;;;;4996220;28;45250;-57
2023/02/18 16:06:37;;;;;;;;;3.00;3.00;;;;;;;;4997506;28;45380;-57
2023/02/18 16:09:05;;;;;;;;;5.00;3.67;;;;;;;;4997341;28;45742;-57
2023/02/18 16:11:39;;;;;;;;;3.00;3.00;;;;;;;;4997863;28;45423;-57
2023/02/18 16:14:05;;;;;;;;;3.00;3.00;;;;;;;;4997201;28;45739;-56
2023/02/18 16:16:32;;;;;;;;;5.33;4.00;;;;;;;;4994131;28;45307;-57
2023/02/18 16:18:57;;;;;;;;;5.00;3.33;;;;;;;;4997298;28;45376;-56
2023/02/18 16:21:25;;;;;;;;;6.33;2.67;;;;;;;;4987853;28;46757;-57
2023/02/18 16:23:54;;;;;;;;;2.67;2.67;;;;;;;;4999211;28;45920;-57
2023/02/18 16:26:21;;;;;;;;;5.67;3.00;;;;;;;;4993111;28;45622;-57
2023/02/18 16:28:49;;;;;;;;;5.33;4.00;;;;;;;;4996391;28;45483;-57
2023/02/18 16:31:15;;;;;;;;;6.00;5.00;;;;;;;;4996148;28;45427;-57
2023/02/18 16:33:40;;;;;;;;;7.00;4.00;;;;;;;;4997035;28;45369;-57
2023/02/18 16:36:06;;;;;;;;;2.33;2.33;;;;;;;;4987176;28;45815;-57
2023/02/18 16:38:31;;;;;;;;;4.00;4.00;;;;;;;;4991563;28;45622;-57
2023/02/18 16:40:56;;;;;;;;;3.00;3.00;;;;;;;;4999705;28;45689;-56
2023/02/18 16:43:25;;;;;;;;;6.67;4.00;;;;;;;;5008443;28;45422;-57
2023/02/18 16:45:52;;;;;;;;;3.67;3.67;;;;;;;;4998783;28;45505;-57
2023/02/18 16:48:39;;;;;;;;;3.00;3.00;;;;;;;;5001112;28;45537;-57
2023/02/18 16:51:06;;;;;;;;;3.00;3.00;;;;;;;;4993051;28;47047;-57
2023/02/18 16:53:32;;;;;;;;;8.67;6.67;;;;;;;;4997482;28;45497;-57
2023/02/18 16:55:57;;;;;;;;;5.33;5.33;;;;;;;;4994729;28;45675;-57
2023/02/18 16:58:22;;;;;;;;;7.67;6.00;;;;;;;;5000286;28;45467;-57
2023/02/18 17:00:49;;;;;;;;;3.00;3.00;;;;;;;;4995421;28;46928;-57
2023/02/18 17:03:15;;;;;;;;;6.67;6.67;;;;;;;;4997041;28;45587;-57
2023/02/18 17:05:40;;;;;;;;;7.00;5.00;;;;;;;;4996709;28;45598;-58
2023/02/18 17:08:35;;;;;;;;;4.00;4.00;;;;;;;;5000319;28;45453;-57
2023/02/18 17:11:00;;;;;;;;;4.00;3.00;;;;;;;;4985782;28;46222;-57
2023/02/18 17:13:27;;;;;;;;;3.67;3.67;;;;;;;;4995202;28;46373;-57
2023/02/18 17:15:54;;;;;;;;;4.67;4.67;;;;;;;;4993779;28;45388;-57
2023/02/18 17:18:20;;;;;;;;;4.00;4.00;;;;;;;;4997622;28;45539;-57
2023/02/18 17:20:47;;;;;;;;;7.00;4.00;;;;;;;;4997665;28;47065;-57
2023/02/18 17:23:14;;;;;;;;;3.00;3.00;;;;;;;;4997683;28;45443;-58
2023/02/18 17:25:40;;;;;;;;;4.00;4.00;;;;;;;;4997445;28;45537;-58
2023/02/18 17:28:05;;;;;;;;;3.33;3.33;;;;;;;;5001857;28;45473;-58
2023/02/18 17:30:33;;;;;;;;;4.67;4.67;;;;;;;;4997315;28;45401;-56
2023/02/18 17:33:00;;;;;;;;;6.00;4.67;;;;;;;;4995332;28;45269;-56
2023/02/18 17:35:25;;;;;;;;;6.00;6.00;;;;;;;;4988867;28;45431;-57
2023/02/18 17:37:51;;;;;;;;;6.00;6.00;;;;;;;;4986469;28;45428;-57
2023/02/18 17:40:19;;;;;;;;;5.67;5.67;;;;;;;;4994113;28;45498;-56
2023/02/18 17:42:44;;;;;;;;;6.00;6.00;;;;;;;;4999985;28;45575;-57
2023/02/18 17:45:18;;;;;;;;;9.00;5.00;;;;;;;;5009134;28;45632;-55
2023/02/18 17:47:43;;;;;;;;;8.00;6.33;;;;;;;;4990604;28;45543;-57
2023/02/18 17:50:09;;;;;;;;;6.00;4.33;;;;;;;;4996883;28;46750;-57
2023/02/18 17:52:35;;;;;;;;;5.00;5.00;;;;;;;;4995169;28;45427;-57
2023/02/18 17:55:00;;;;;;;;;5.67;5.67;;;;;;;;4996715;28;45440;-57
2023/02/18 17:57:26;;;;;;;;;6.33;5.00;;;;;;;;4999114;28;45569;-56
2023/02/18 17:59:51;;;;;;;;;6.00;6.00;;;;;;;;4996973;28;45348;-57
2023/02/18 18:02:24;;;;;;;;;6.33;6.33;;;;;;;;4998180;28;45333;-57
2023/02/18 18:04:49;;;;;;;;;8.00;7.00;;;;;;;;4998031;28;45395;-57
2023/02/18 18:07:14;;;;;;;;;8.33;7.00;;;;;;;;4999085;28;45467;-57
2023/02/18 18:09:39;;;;;;;;;9.67;8.33;;;;;;;;4987792;28;46653;-56
2023/02/18 18:12:05;;;;;;;;;5.67;5.67;;;;;;;;4993578;28;45396;-57
2023/02/18 18:14:30;;;;;;;;;9.33;6.00;;;;;;;;4999077;28;45933;-56
2023/02/18 18:16:55;;;;;;;;;6.33;5.67;;;;;;;;4997139;28;45300;-56
2023/02/18 18:19:20;;;;;;;;;7.00;7.00;;;;;;;;4998965;28;45810;-56
2023/02/18 18:21:47;;;;;;;;;5.00;5.00;;;;;;;;4998623;28;45441;-57
2023/02/18 18:24:12;;;;;;;;;8.33;7.00;;;;;;;;4997469;28;45471;-56
2023/02/18 18:26:38;;;;;;;;;5.67;5.67;;;;;;;;4997124;28;45309;-57
2023/02/18 18:29:03;;;;;;;;;6.00;4.00;;;;;;;;4998058;28;45347;-56
2023/02/18 18:31:28;;;;;;;;;7.33;6.00;;;;;;;;4997170;28;45427;-57
2023/02/18 18:33:53;;;;;;;;;10.33;7.67;;;;;;;;4997278;28;45580;-56
2023/02/18 18:36:19;;;;;;;;;6.67;6.67;;;;;;;;4998025;28;45734;-56
2023/02/18 18:38:44;;;;;;;;;5.00;5.00;;;;;;;;4998212;28;45595;-56
2023/02/18 18:41:13;;;;;;;;;8.00;6.33;;;;;;;;4998257;28;45414;-56
2023/02/18 18:43:39;;;;;;;;;7.33;6.33;;;;;;;;4998150;28;45470;-57
2023/02/18 18:46:04;;;;;;;;;7.00;7.00;;;;;;;;4998399;28;45404;-56
2023/02/18 18:48:30;;;;;;;;;9.67;7.00;;;;;;;;4987792;28;46322;-56